Time;durP1;ratioP1;P1;durP2;ratioP2;P2;SDS_P1;SDS_P2;PMS_P1;PMS_P2;Temp;Humidity;BMP_temperature;BMP_pressure;BME280_temperature;BME280_humidity;BME280_pressure;Samples;Min_cycle;Max_cycle;Signal;HPM_P1;HPM_P2
2024/01/25 00:01:48;;;;;;;45.00;9.68;;;7.60;94.10;;;;;;5036328;28;20514;-60
2024/01/25 00:04:14;;;;;;;49.80;10.50;;;7.60;94.40;;;;;;5037613;28;20049;-60
2024/01/25 00:06:40;;;;;;;65.97;12.18;;;7.60;94.70;;;;;;5031602;28;20047;-60
2024/01/25 00:09:06;;;;;;;56.75;10.57;;;7.50;95.10;;;;;;5021186;28;20045;-60
2024/01/25 00:11:32;;;;;;;53.63;9.35;;;7.50;96.30;;;;;;5038705;28;20048;-60
2024/01/25 00:13:58;;;;;;;50.10;9.35;;;7.50;96.30;;;;;;5053373;28;20518;-60
2024/01/25 00:16:24;;;;;;;47.70;8.30;;;7.40;96.80;;;;;;5035917;28;20053;-60
2024/01/25 00:18:50;;;;;;;48.00;9.80;;;7.40;98.00;;;;;;4992728;28;20046;-60
2024/01/25 00:21:16;;;;;;;53.40;9.30;;;7.30;99.90;;;;;;4997574;28;20046;-60
2024/01/25 00:23:42;;;;;;;43.33;8.38;;;7.20;99.90;;;;;;4998351;28;20088;-60
2024/01/25 00:26:08;;;;;;;53.63;9.02;;;7.20;99.90;;;;;;4999185;28;20050;-59
2024/01/25 00:28:34;;;;;;;58.78;9.45;;;7.20;99.90;;;;;;4992769;28;20049;-60
2024/01/25 00:31:00;;;;;;;56.85;9.30;;;7.20;99.90;;;;;;4997838;28;20100;-60
2024/01/25 00:33:25;;;;;;;45.72;6.57;;;7.20;99.90;;;;;;4996363;28;20447;-60
2024/01/25 00:35:51;;;;;;;49.00;9.32;;;7.10;99.90;;;;;;5001781;28;20614;-60
2024/01/25 00:38:17;;;;;;;71.03;10.40;;;7.10;99.90;;;;;;4998617;28;20038;-60
2024/01/25 00:40:45;;;;;;;48.70;10.05;;;7.10;99.90;;;;;;5001278;28;20378;-60
2024/01/25 00:43:11;;;;;;;51.00;8.07;;;7.00;99.90;;;;;;4997918;28;20061;-60
2024/01/25 00:45:37;;;;;;;55.10;9.02;;;7.00;99.90;;;;;;5002931;28;20042;-60
2024/01/25 00:48:05;;;;;;;64.93;9.05;;;7.00;99.90;;;;;;5000234;28;20173;-60
2024/01/25 00:50:31;;;;;;;58.47;11.18;;;7.00;99.90;;;;;;5002533;28;20046;-60
2024/01/25 00:52:57;;;;;;;33.80;5.82;;;7.00;99.90;;;;;;5000692;28;20389;-60
2024/01/25 00:55:23;;;;;;;56.20;9.25;;;6.90;99.90;;;;;;5002293;28;20417;-60
2024/01/25 00:57:49;;;;;;;57.80;10.52;;;6.90;99.90;;;;;;5002327;28;20500;-60
2024/01/25 01:00:15;;;;;;;48.30;8.07;;;6.90;99.90;;;;;;5002938;28;20108;-61
2024/01/25 01:02:47;;;;;;;58.90;9.50;;;6.80;99.90;;;;;;5001394;28;20111;-60
2024/01/25 01:05:14;;;;;;;58.75;9.88;;;6.80;99.90;;;;;;5000628;28;20291;-60
2024/01/25 01:07:44;;;;;;;64.28;9.82;;;6.80;99.90;;;;;;5001869;28;20049;-60
2024/01/25 01:10:14;;;;;;;49.75;9.20;;;6.70;99.90;;;;;;5001209;28;20046;-60
2024/01/25 01:12:39;;;;;;;72.60;11.80;;;6.70;99.90;;;;;;5000812;28;20112;-60
2024/01/25 01:15:05;;;;;;;55.30;10.18;;;6.70;99.90;;;;;;4999686;28;20520;-60
2024/01/25 01:17:31;;;;;;;54.28;8.77;;;6.70;99.90;;;;;;5017008;28;20402;-60
2024/01/25 01:19:57;;;;;;;59.42;9.25;;;6.70;99.90;;;;;;5038292;28;20057;-60
2024/01/25 01:22:23;;;;;;;46.97;7.50;;;6.70;99.90;;;;;;5042435;28;20111;-59
2024/01/25 01:24:49;;;;;;;56.80;8.57;;;6.70;99.90;;;;;;5040833;28;20045;-60
2024/01/25 01:27:14;;;;;;;54.35;8.48;;;6.70;99.90;;;;;;5035400;28;20075;-60
2024/01/25 01:29:41;;;;;;;63.08;10.20;;;6.70;99.90;;;;;;5038543;28;20426;-60
2024/01/25 01:32:06;;;;;;;53.67;10.07;;;6.70;99.90;;;;;;5036707;28;20041;-60
2024/01/25 01:34:32;;;;;;;61.75;9.38;;;6.70;99.90;;;;;;5037025;28;20414;-60
2024/01/25 01:36:58;;;;;;;50.38;6.72;;;6.60;99.90;;;;;;5040194;28;20549;-60
2024/01/25 01:39:25;;;;;;;48.83;7.88;;;6.60;99.90;;;;;;5042320;28;20548;-60
2024/01/25 01:41:51;;;;;;;47.35;7.80;;;6.60;99.90;;;;;;5039248;28;20534;-60
2024/01/25 01:44:17;;;;;;;60.90;8.75;;;6.50;99.90;;;;;;5034259;28;20037;-60
2024/01/25 01:46:44;;;;;;;47.25;7.35;;;6.50;99.90;;;;;;5034743;28;20056;-60
2024/01/25 01:49:14;;;;;;;49.28;7.10;;;6.40;99.90;;;;;;5036091;28;20120;-59
2024/01/25 01:51:42;;;;;;;;;;;6.40;99.90;;;;;;5041146;28;20056;-60
2024/01/25 01:54:09;;;;;;;56.33;8.32;;;6.40;99.90;;;;;;5034749;28;19932;-60
2024/01/25 01:56:35;;;;;;;43.50;7.10;;;6.40;99.90;;;;;;5035485;28;20033;-60
2024/01/25 01:59:08;;;;;;;42.33;8.18;;;6.40;99.90;;;;;;5039129;28;20072;-60
2024/01/25 02:01:34;;;;;;;47.08;6.18;;;6.50;99.90;;;;;;5050358;28;20064;-60
2024/01/25 02:03:59;;;;;;;65.43;9.90;;;6.40;99.90;;;;;;5036124;28;20040;-60
2024/01/25 02:06:26;;;;;;;52.53;8.70;;;6.30;99.90;;;;;;5041148;28;20526;-60
2024/01/25 02:08:53;;;;;;;36.90;6.65;;;6.30;99.90;;;;;;5037705;28;20403;-60
2024/01/25 02:11:19;;;;;;;46.90;9.95;;;6.30;99.90;;;;;;5021765;28;20125;-60
2024/01/25 02:13:45;;;;;;;53.70;7.72;;;6.30;99.90;;;;;;5038574;28;20053;-60
2024/01/25 02:16:11;;;;;;;54.20;9.48;;;6.40;99.90;;;;;;5039946;28;20052;-60
2024/01/25 02:18:38;;;;;;;65.32;10.88;;;6.30;99.90;;;;;;5038865;28;20087;-60
2024/01/25 02:21:05;;;;;;;55.83;8.15;;;6.30;99.90;;;;;;5040058;28;20045;-60
2024/01/25 02:23:31;;;;;;;55.55;7.97;;;6.30;99.90;;;;;;5020378;28;20045;-60
2024/01/25 02:25:57;;;;;;;57.85;7.93;;;6.30;99.90;;;;;;5036779;28;20032;-60
2024/01/25 02:28:22;;;;;;;56.28;9.68;;;6.30;99.90;;;;;;5038298;28;20176;-60
2024/01/25 02:30:48;;;;;;;56.70;7.72;;;6.20;99.90;;;;;;5040376;28;20045;-60
2024/01/25 02:33:15;;;;;;;46.13;5.70;;;6.20;99.90;;;;;;5040390;28;20096;-60
2024/01/25 02:35:41;;;;;;;41.53;6.70;;;6.20;99.90;;;;;;5041631;28;20037;-60
2024/01/25 02:38:07;;;;;;;55.63;8.68;;;6.20;99.90;;;;;;5037582;28;20053;-60
2024/01/25 02:40:33;;;;;;;56.08;9.05;;;6.30;99.90;;;;;;5023806;28;20486;-60
2024/01/25 02:42:59;;;;;;;48.20;6.97;;;6.30;99.90;;;;;;5040070;28;20045;-60
2024/01/25 02:45:24;;;;;;;60.42;9.30;;;6.30;99.90;;;;;;5038549;28;20140;-60
2024/01/25 02:47:50;;;;;;;64.93;7.38;;;6.30;99.90;;;;;;5021678;28;20521;-60
2024/01/25 02:50:21;;;;;;;52.22;9.07;;;6.30;99.90;;;;;;5052228;28;20564;-60
2024/01/25 02:52:47;;;;;;;66.78;11.23;;;6.30;99.90;;;;;;5039329;28;20044;-60
2024/01/25 02:55:13;;;;;;;51.72;8.52;;;6.30;99.90;;;;;;5035652;28;20049;-60
2024/01/25 02:57:39;;;;;;;52.92;7.18;;;6.20;99.90;;;;;;5039174;28;20111;-62
2024/01/25 03:00:05;;;;;;;54.58;7.88;;;6.20;99.90;;;;;;5036059;28;20444;-62
2024/01/25 03:02:31;;;;;;;67.15;9.30;;;6.20;99.90;;;;;;5040770;28;20064;-62
2024/01/25 03:04:58;;;;;;;57.17;9.25;;;6.20;99.90;;;;;;5037168;28;20057;-62
2024/01/25 03:07:24;;;;;;;70.78;11.00;;;6.10;99.90;;;;;;5038384;28;20053;-62
2024/01/25 03:09:50;;;;;;;40.70;5.43;;;6.10;99.90;;;;;;5040017;28;20059;-62
2024/01/25 03:12:16;;;;;;;56.28;8.15;;;6.10;99.90;;;;;;5039728;28;20040;-62
2024/01/25 03:14:42;;;;;;;62.30;9.02;;;6.10;99.90;;;;;;5037618;28;20044;-62
2024/01/25 03:17:07;;;;;;;52.33;8.50;;;6.10;99.90;;;;;;5039322;28;20071;-62
2024/01/25 03:19:33;;;;;;;58.40;9.32;;;6.00;99.90;;;;;;5040161;28;20053;-62
2024/01/25 03:22:01;;;;;;;33.40;6.55;;;6.00;99.90;;;;;;5037707;28;20053;-62
2024/01/25 03:24:29;;;;;;;52.00;6.72;;;6.00;99.90;;;;;;5033580;28;20136;-62
2024/01/25 03:26:54;;;;;;;38.30;4.03;;;6.00;99.90;;;;;;5037409;28;20048;-62
2024/01/25 03:29:20;;;;;;;30.65;5.60;;;5.90;99.90;;;;;;5037231;28;20037;-62
2024/01/25 03:31:46;;;;;;;60.65;8.30;;;5.90;99.90;;;;;;5037009;28;20053;-62
2024/01/25 03:34:11;;;;;;;50.38;7.68;;;5.90;99.90;;;;;;5052416;28;20387;-62
2024/01/25 03:36:39;;;;;;;29.27;4.40;;;5.80;99.90;;;;;;5039489;28;20051;-62
2024/01/25 03:39:05;;;;;;;59.20;7.63;;;5.80;99.90;;;;;;5036307;28;20115;-62
2024/01/25 03:41:31;;;;;;;49.08;9.05;;;5.70;99.90;;;;;;5037148;28;20342;-62
2024/01/25 03:43:57;;;;;;;28.92;4.75;;;5.70;99.90;;;;;;5037395;28;20059;-62
2024/01/25 03:46:22;;;;;;;27.90;4.45;;;5.70;99.90;;;;;;5035792;28;20594;-62
2024/01/25 03:48:48;;;;;;;43.28;7.50;;;5.60;99.90;;;;;;5039611;28;20277;-62
2024/01/25 03:51:14;;;;;;;38.95;4.78;;;5.60;99.90;;;;;;5036154;28;20076;-62
2024/01/25 03:53:42;;;;;;;39.65;5.28;;;5.60;99.90;;;;;;5037860;28;20379;-62
2024/01/25 03:56:13;;;;;;;22.02;3.40;;;5.50;99.90;;;;;;5033563;28;20462;-62
2024/01/25 03:58:38;;;;;;;45.30;7.05;;;5.50;99.90;;;;;;5039715;28;20558;-62
2024/01/25 04:01:04;;;;;;;32.45;4.30;;;5.50;99.90;;;;;;5034685;28;20144;-62
2024/01/25 04:03:30;;;;;;;19.75;3.20;;;5.40;99.90;;;;;;5035370;28;20155;-62
2024/01/25 04:05:56;;;;;;;52.33;7.32;;;5.50;99.90;;;;;;5039348;28;20169;-62
2024/01/25 04:08:21;;;;;;;34.42;6.55;;;5.50;99.90;;;;;;5039405;28;20041;-62
2024/01/25 04:10:48;;;;;;;42.88;7.15;;;5.50;99.90;;;;;;5037532;28;20130;-62
2024/01/25 04:13:13;;;;;;;41.22;5.70;;;5.50;99.90;;;;;;5038352;28;20408;-62
2024/01/25 04:15:39;;;;;;;45.15;7.05;;;5.50;99.90;;;;;;5038940;28;20032;-62
2024/01/25 04:18:05;;;;;;;39.25;6.45;;;5.50;99.90;;;;;;5036283;28;20048;-62
2024/01/25 04:20:31;;;;;;;50.28;7.40;;;5.40;99.90;;;;;;5037614;28;20083;-62
2024/01/25 04:22:58;;;;;;;58.55;8.63;;;5.40;99.90;;;;;;5037155;28;20044;-62
2024/01/25 04:25:23;;;;;;;52.88;7.85;;;5.30;99.90;;;;;;5019815;28;20049;-63
2024/01/25 04:27:49;;;;;;;54.85;8.05;;;5.30;99.90;;;;;;5035996;28;20056;-62
2024/01/25 04:30:18;;;;;;;46.25;6.53;;;5.30;99.90;;;;;;5035174;28;20052;-62
2024/01/25 04:32:44;;;;;;;48.20;4.73;;;5.40;99.90;;;;;;5037353;28;20045;-62
2024/01/25 04:35:10;;;;;;;25.27;3.35;;;5.40;99.90;;;;;;5030968;28;20103;-62
2024/01/25 04:37:36;;;;;;;40.10;5.25;;;5.40;99.90;;;;;;5037365;28;20415;-62
2024/01/25 04:40:02;;;;;;;10.10;1.88;;;5.30;99.90;;;;;;5038167;28;20033;-62
2024/01/25 04:42:28;;;;;;;51.75;8.60;;;5.30;99.90;;;;;;5054525;28;20057;-62
2024/01/25 04:44:54;;;;;;;33.13;4.30;;;5.20;99.90;;;;;;5038247;28;20051;-62
2024/01/25 04:47:20;;;;;;;48.38;7.65;;;5.20;99.90;;;;;;5037251;28;20041;-62
2024/01/25 04:49:45;;;;;;;56.13;8.65;;;5.30;99.90;;;;;;5043620;28;20042;-62
2024/01/25 04:52:12;;;;;;;61.13;8.40;;;5.20;99.90;;;;;;5038364;28;20040;-63
2024/01/25 04:54:38;;;;;;;32.65;5.22;;;5.30;99.90;;;;;;5035793;28;20040;-62
2024/01/25 04:57:07;;;;;;;27.25;5.57;;;5.30;99.90;;;;;;5037399;28;20045;-62
2024/01/25 04:59:36;;;;;;;41.03;7.50;;;5.30;99.90;;;;;;5037212;28;20045;-62
2024/01/25 05:02:01;;;;;;;26.23;3.40;;;5.20;99.90;;;;;;5035820;28;20099;-62
2024/01/25 05:04:29;;;;;;;34.72;5.15;;;5.30;99.90;;;;;;5037520;28;20049;-62
2024/01/25 05:06:55;;;;;;;64.70;8.80;;;5.20;99.90;;;;;;5020886;28;20044;-62
2024/01/25 05:09:21;;;;;;;20.50;2.95;;;5.20;99.90;;;;;;5035593;28;20045;-62
2024/01/25 05:11:47;;;;;;;4.80;1.55;;;5.30;99.90;;;;;;5039548;28;20548;-62
2024/01/25 05:14:14;;;;;;;40.75;6.03;;;5.20;99.90;;;;;;5037486;28;20133;-62
2024/01/25 05:16:39;;;;;;;18.02;3.10;;;5.20;99.90;;;;;;5038128;28;20333;-62
2024/01/25 05:19:05;;;;;;;66.10;8.60;;;5.20;99.90;;;;;;5037141;28;20578;-62
2024/01/25 05:21:32;;;;;;;25.50;3.30;;;5.20;99.90;;;;;;5036564;28;20423;-62
2024/01/25 05:23:58;;;;;;;46.00;5.80;;;5.20;99.90;;;;;;5040300;28;20055;-62
2024/01/25 05:26:24;;;;;;;40.65;5.15;;;5.20;99.90;;;;;;5039059;28;20119;-62
2024/01/25 05:28:49;;;;;;;57.85;8.35;;;5.20;99.90;;;;;;5042895;28;20119;-62
2024/01/25 05:31:16;;;;;;;38.83;5.20;;;5.20;99.90;;;;;;5041379;28;20075;-62
2024/01/25 05:33:42;;;;;;;41.08;5.25;;;5.20;99.90;;;;;;5038050;28;20398;-62
2024/01/25 05:36:09;;;;;;;37.85;5.57;;;5.20;99.90;;;;;;5053445;28;20087;-62
2024/01/25 05:38:35;;;;;;;21.60;3.28;;;5.20;99.90;;;;;;5037544;28;20049;-62
2024/01/25 05:41:02;;;;;;;41.67;5.20;;;5.10;99.90;;;;;;5042385;28;20041;-62
2024/01/25 05:43:28;;;;;;;48.42;6.75;;;5.20;99.90;;;;;;5039510;28;20055;-62
2024/01/25 05:45:56;;;;;;;54.90;8.25;;;5.20;99.90;;;;;;5036669;28;20399;-62
2024/01/25 05:48:22;;;;;;;44.67;5.57;;;5.20;99.90;;;;;;5036503;28;20449;-62
2024/01/25 05:50:47;;;;;;;39.15;6.22;;;5.20;99.90;;;;;;5042616;28;20040;-62
2024/01/25 05:53:13;;;;;;;51.10;6.43;;;5.20;99.90;;;;;;5035676;28;20068;-62
2024/01/25 05:55:39;;;;;;;27.58;4.85;;;5.10;99.90;;;;;;5041659;28;20037;-62
2024/01/25 05:58:05;;;;;;;34.03;5.20;;;5.20;99.90;;;;;;5039548;28;20041;-62
2024/01/25 06:00:31;;;;;;;38.90;5.10;;;5.10;99.90;;;;;;5040054;28;20091;-62
2024/01/25 06:02:57;;;;;;;36.40;4.45;;;5.20;99.90;;;;;;5034830;28;20550;-62
2024/01/25 06:05:24;;;;;;;22.30;3.65;;;5.20;99.90;;;;;;5038984;28;20124;-62
2024/01/25 06:07:50;;;;;;;43.95;5.55;;;5.10;99.90;;;;;;5037223;28;20041;-62
2024/01/25 06:10:16;;;;;;;67.13;9.98;;;5.10;99.90;;;;;;5035756;28;20115;-62
2024/01/25 06:12:41;;;;;;;37.78;5.30;;;5.10;99.90;;;;;;5041519;28;20037;-62
2024/01/25 06:15:08;;;;;;;54.30;6.40;;;5.10;99.90;;;;;;5039710;28;20470;-62
2024/01/25 06:17:40;;;;;;;21.25;3.85;;;5.20;99.90;;;;;;5032572;28;20557;-62
2024/01/25 06:20:06;;;;;;;32.42;4.50;;;5.20;99.90;;;;;;5037941;28;20045;-62
2024/01/25 06:22:32;;;;;;;44.30;6.03;;;5.10;99.90;;;;;;5032099;28;20551;-62
2024/01/25 06:24:58;;;;;;;27.27;3.67;;;5.20;99.90;;;;;;5038106;28;20037;-62
2024/01/25 06:27:23;;;;;;;32.17;4.93;;;5.10;99.90;;;;;;5034788;28;20484;-62
2024/01/25 06:29:55;;;;;;;31.92;4.63;;;5.10;99.90;;;;;;5039786;28;20043;-63
2024/01/25 06:32:20;;;;;;;25.75;4.55;;;5.10;99.90;;;;;;5033761;28;20048;-62
2024/01/25 06:34:46;;;;;;;38.22;5.40;;;5.00;99.90;;;;;;5040646;28;20049;-62
2024/01/25 06:37:15;;;;;;;20.45;3.45;;;5.00;99.90;;;;;;5025860;28;20554;-62
2024/01/25 06:39:40;;;;;;;48.92;7.30;;;5.00;99.90;;;;;;5039883;28;20124;-62
2024/01/25 06:42:06;;;;;;;45.30;6.32;;;5.10;99.90;;;;;;5037043;28;20046;-62
2024/01/25 06:44:32;;;;;;;33.00;4.28;;;5.10;99.90;;;;;;5037476;28;20114;-62
2024/01/25 06:46:58;;;;;;;38.13;5.32;;;5.10;99.90;;;;;;5036101;28;20087;-62
2024/01/25 06:49:24;;;;;;;52.30;7.15;;;5.00;99.90;;;;;;5037127;28;20044;-62
2024/01/25 06:51:49;;;;;;;22.35;3.13;;;4.90;99.90;;;;;;5041731;28;20463;-62
2024/01/25 06:54:15;;;;;;;45.92;6.43;;;5.00;99.90;;;;;;5036189;28;21296;-62
2024/01/25 06:56:42;;;;;;;32.50;4.40;;;4.90;99.90;;;;;;5041577;28;20051;-62
2024/01/25 06:59:08;;;;;;;61.85;8.40;;;5.00;99.90;;;;;;5038393;28;20036;-62
2024/01/25 07:01:33;;;;;;;56.25;6.63;;;5.00;99.90;;;;;;5036501;28;20475;-62
2024/01/25 07:03:59;;;;;;;59.38;8.05;;;5.00;99.90;;;;;;5035561;28;20045;-62
2024/01/25 07:06:26;;;;;;;49.47;7.50;;;4.90;99.90;;;;;;5034796;28;20449;-62
2024/01/25 07:08:53;;;;;;;59.17;8.73;;;4.90;99.90;;;;;;5039649;28;20082;-62
2024/01/25 07:11:19;;;;;;;69.35;9.52;;;4.90;99.90;;;;;;5039998;28;20064;-62
2024/01/25 07:13:46;;;;;;;64.05;8.95;;;4.80;99.90;;;;;;5039952;28;20049;-63
2024/01/25 07:16:12;;;;;;;31.00;4.43;;;4.80;99.90;;;;;;5037570;28;20126;-62
2024/01/25 07:18:37;;;;;;;72.75;9.30;;;4.80;99.90;;;;;;5039872;28;20049;-62
2024/01/25 07:21:03;;;;;;;59.38;8.00;;;4.80;99.90;;;;;;5040031;28;20048;-62
2024/01/25 07:23:30;;;;;;;55.50;8.32;;;4.70;99.90;;;;;;5036723;28;20045;-62
2024/01/25 07:25:56;;;;;;;70.45;9.18;;;4.70;99.90;;;;;;5038224;28;20300;-63
2024/01/25 07:28:21;;;;;;;68.05;8.57;;;4.70;99.90;;;;;;5037374;28;20106;-62
2024/01/25 07:30:48;;;;;;;66.57;8.82;;;4.70;99.90;;;;;;5038399;28;20523;-62
2024/01/25 07:33:13;;;;;;;67.05;7.60;;;4.70;99.90;;;;;;5037338;28;20389;-62
2024/01/25 07:35:45;;;;;;;74.68;8.73;;;4.60;99.90;;;;;;5038226;28;20044;-62
2024/01/25 07:38:12;;;;;;;60.95;8.02;;;4.60;99.90;;;;;;5037528;28;20128;-62
2024/01/25 07:40:37;;;;;;;65.65;8.57;;;4.70;99.90;;;;;;5038902;28;20151;-62
2024/01/25 07:43:03;;;;;;;52.30;7.57;;;4.70;99.90;;;;;;5039429;28;20057;-62
2024/01/25 07:45:29;;;;;;;79.28;10.23;;;4.70;99.90;;;;;;5035191;28;20470;-60
2024/01/25 07:47:55;;;;;;;66.72;8.45;;;4.70;99.90;;;;;;5034258;28;20069;-60
2024/01/25 07:50:21;;;;;;;66.07;8.40;;;4.70;99.90;;;;;;5036846;28;20048;-60
2024/01/25 07:52:52;;;;;;;74.97;10.35;;;4.60;99.90;;;;;;5036399;28;20069;-61
2024/01/25 07:55:18;;;;;;;73.65;8.43;;;4.60;99.90;;;;;;5034142;28;20500;-60
2024/01/25 07:57:44;;;;;;;63.97;8.85;;;4.60;99.90;;;;;;5038535;28;20052;-60
2024/01/25 08:00:10;;;;;;;60.35;9.18;;;4.60;99.90;;;;;;5039487;28;20132;-60
2024/01/25 08:02:38;;;;;;;75.22;7.45;;;4.70;99.90;;;;;;5033441;28;20143;-60
2024/01/25 08:05:04;;;;;;;69.22;7.13;;;4.70;99.90;;;;;;5034908;28;20547;-60
2024/01/25 08:07:31;;;;;;;59.80;6.90;;;4.70;99.90;;;;;;5033686;28;20155;-60
2024/01/25 08:09:58;;;;;;;33.40;4.38;;;4.70;99.90;;;;;;5039972;28;20380;-60
2024/01/25 08:12:25;;;;;;;64.90;6.80;;;4.80;99.90;;;;;;5037811;28;20064;-60
2024/01/25 08:14:52;;;;;;;56.78;5.93;;;4.80;99.90;;;;;;5017466;28;20100;-60
2024/01/25 08:17:20;;;;;;;52.70;6.75;;;4.90;99.90;;;;;;5038114;28;20060;-60
2024/01/25 08:19:46;;;;;;;54.58;6.93;;;4.90;99.90;;;;;;5035248;28;20079;-60
2024/01/25 08:22:12;;;;;;;43.88;5.53;;;4.90;99.90;;;;;;5039472;28;20044;-60
2024/01/25 08:24:39;;;;;;;30.92;5.13;;;5.00;99.90;;;;;;5033014;28;20056;-60
2024/01/25 08:27:07;;;;;;;19.33;3.17;;;5.10;99.90;;;;;;5029855;28;20045;-60
2024/01/25 08:29:33;;;;;;;57.10;7.65;;;5.10;99.90;;;;;;5038379;28;20398;-60
2024/01/25 08:31:59;;;;;;;29.13;3.55;;;5.10;99.90;;;;;;5032945;28;20048;-60
2024/01/25 08:34:24;;;;;;;68.50;8.65;;;5.20;99.90;;;;;;5036323;28;20170;-60
2024/01/25 08:36:50;;;;;;;28.15;4.50;;;5.20;99.90;;;;;;5035892;28;20055;-60
2024/01/25 08:39:16;;;;;;;51.78;6.85;;;5.20;99.90;;;;;;5032125;28;20072;-60
2024/01/25 08:41:42;;;;;;;12.27;3.25;;;5.30;99.90;;;;;;5033314;28;20084;-60
2024/01/25 08:44:08;;;;;;;35.50;5.03;;;5.30;99.90;;;;;;5045316;28;20052;-60
2024/01/25 08:46:34;;;;;;;29.85;4.13;;;5.30;99.90;;;;;;5031759;28;20118;-60
2024/01/25 08:49:00;;;;;;;71.43;9.07;;;5.40;99.90;;;;;;5033333;28;20092;-60
2024/01/25 08:51:25;;;;;;;28.83;4.32;;;5.40;99.90;;;;;;5038115;28;20128;-60
2024/01/25 08:53:51;;;;;;;47.90;4.15;;;5.50;99.90;;;;;;5031485;28;20457;-60
2024/01/25 08:56:17;;;;;;;39.55;4.80;;;5.50;99.90;;;;;;5033075;28;20061;-60
2024/01/25 08:58:43;;;;;;;68.50;9.90;;;5.60;99.90;;;;;;5038669;28;20080;-60
2024/01/25 09:01:09;;;;;;;77.22;8.32;;;5.60;99.90;;;;;;5040541;28;20049;-60
2024/01/25 09:03:35;;;;;;;61.70;8.82;;;5.60;99.90;;;;;;5039259;28;20672;-60
2024/01/25 09:06:05;;;;;;;74.03;9.23;;;5.70;99.90;;;;;;5038695;28;20049;-60
2024/01/25 09:08:31;;;;;;;68.03;8.75;;;5.70;99.90;;;;;;5036975;28;20052;-61
2024/01/25 09:10:59;;;;;;;59.75;8.45;;;5.70;99.90;;;;;;5041436;28;21588;-60
2024/01/25 09:13:25;;;;;;;58.10;6.53;;;5.80;99.90;;;;;;5040736;28;20041;-60
2024/01/25 09:15:50;;;;;;;32.58;4.40;;;5.80;99.90;;;;;;5036807;28;20045;-60
2024/01/25 09:18:19;;;;;;;27.08;4.35;;;5.90;99.90;;;;;;5042916;28;20525;-60
2024/01/25 09:20:47;;;;;;;26.50;3.90;;;5.90;99.90;;;;;;5038171;28;20060;-60
2024/01/25 09:23:16;;;;;;;73.07;9.23;;;5.90;99.90;;;;;;5040619;28;20083;-61
2024/01/25 09:25:43;;;;;;;44.33;5.28;;;5.80;99.90;;;;;;5041893;28;20045;-60
2024/01/25 09:28:11;;;;;;;42.55;5.30;;;5.90;99.90;;;;;;5037368;28;20048;-60
2024/01/25 09:30:38;;;;;;;44.22;6.35;;;5.90;99.90;;;;;;5039478;28;20052;-60
2024/01/25 09:33:05;;;;;;;38.55;4.95;;;6.00;99.90;;;;;;5039938;28;20118;-60
2024/01/25 09:35:30;;;;;;;30.92;4.35;;;6.00;99.90;;;;;;5041304;28;20037;-60
2024/01/25 09:37:57;;;;;;;29.23;5.20;;;6.00;99.90;;;;;;5054721;28;20372;-60
2024/01/25 09:40:23;;;;;;;60.13;7.93;;;6.10;99.90;;;;;;5043065;28;20048;-60
2024/01/25 09:42:49;;;;;;;42.05;6.72;;;6.10;99.90;;;;;;5033016;28;20045;-60
2024/01/25 09:45:18;;;;;;;16.70;2.50;;;6.20;99.90;;;;;;5035941;28;20045;-60
2024/01/25 09:47:44;;;;;;;22.55;3.80;;;6.20;99.90;;;;;;5034549;28;20061;-60
2024/01/25 09:50:10;;;;;;;45.58;6.63;;;6.20;99.90;;;;;;5035569;28;20048;-60
2024/01/25 09:52:37;;;;;;;40.40;6.70;;;6.20;99.90;;;;;;5038628;28;20072;-60
2024/01/25 09:55:06;;;;;;;51.20;7.22;;;6.20;99.90;;;;;;5033750;28;20053;-60
2024/01/25 09:57:37;;;;;;;57.28;7.32;;;6.20;99.90;;;;;;5037147;28;20425;-60
2024/01/25 10:00:05;;;;;;;64.88;8.88;;;6.20;99.90;;;;;;5034079;28;20051;-60
2024/01/25 10:02:30;;;;;;;24.20;3.15;;;6.30;99.90;;;;;;5037417;28;20064;-60
2024/01/25 10:05:00;;;;;;;37.80;6.32;;;6.30;99.90;;;;;;5032845;28;20516;-60
2024/01/25 10:07:43;;;;;;;52.45;6.97;;;6.40;99.90;;;;;;5028584;28;20080;-60
2024/01/25 10:10:10;;;;;;;56.15;7.20;;;6.40;99.90;;;;;;5035533;28;20064;-60
2024/01/25 10:12:40;;;;;;;54.78;5.38;;;6.50;99.90;;;;;;5032303;28;20167;-60
2024/01/25 10:15:06;;;;;;;;;;;6.50;99.90;;;;;;5038201;28;20044;-60
2024/01/25 10:17:34;;;;;;;62.38;8.65;;;6.60;99.90;;;;;;5038665;28;19931;-62
2024/01/25 10:19:59;;;;;;;33.60;4.68;;;6.70;99.90;;;;;;5038355;28;20052;-60
2024/01/25 10:22:26;;;;;;;52.83;5.90;;;6.80;99.90;;;;;;5023435;28;20041;-60
2024/01/25 10:24:54;;;;;;;42.45;4.88;;;6.90;99.90;;;;;;5038694;28;20049;-60
2024/01/25 10:27:21;;;;;;;48.83;6.50;;;7.00;99.90;;;;;;5039627;28;20056;-60
2024/01/25 10:29:47;;;;;;;47.58;6.20;;;7.10;99.90;;;;;;5019218;28;20057;-61
2024/01/25 10:32:14;;;;;;;42.92;5.38;;;7.10;99.90;;;;;;5039197;28;20467;-60
2024/01/25 10:34:40;;;;;;;30.33;4.50;;;7.20;99.90;;;;;;5038846;28;20125;-60
2024/01/25 10:37:07;;;;;;;38.40;5.30;;;7.20;99.90;;;;;;5036802;28;20041;-59
2024/01/25 10:39:34;;;;;;;22.70;3.78;;;7.30;99.90;;;;;;5037022;28;20102;-60
2024/01/25 10:42:00;;;;;;;41.47;5.07;;;7.30;99.90;;;;;;5038554;28;20053;-60
2024/01/25 10:44:32;;;;;;;34.65;5.50;;;7.40;99.90;;;;;;5035966;28;20041;-60
2024/01/25 10:46:58;;;;;;;38.08;5.07;;;7.30;99.90;;;;;;5034332;28;20520;-60
2024/01/25 10:49:26;;;;;;;45.28;6.07;;;7.40;99.90;;;;;;5039703;28;20048;-60
2024/01/25 10:51:53;;;;;;;63.85;9.18;;;7.40;99.90;;;;;;5035678;28;20530;-60
2024/01/25 10:54:19;;;;;;;68.00;7.60;;;7.50;99.90;;;;;;5036526;28;20103;-60
2024/01/25 10:56:48;;;;;;;41.08;6.03;;;7.50;99.90;;;;;;5038589;28;20045;-60
2024/01/25 10:59:16;;;;;;;54.08;5.90;;;7.60;99.90;;;;;;5039527;28;20505;-61
2024/01/25 11:01:45;;;;;;;60.35;7.57;;;7.60;99.90;;;;;;5041140;28;20072;-60
2024/01/25 11:04:20;;;;;;;35.83;5.85;;;7.70;99.90;;;;;;5037915;28;20032;-60
2024/01/25 11:06:46;;;;;;;37.47;5.15;;;7.70;99.90;;;;;;5036644;28;20059;-60
2024/01/25 11:09:24;;;;;;;41.83;4.82;;;7.70;99.90;;;;;;5036917;28;20503;-60
2024/01/25 11:11:50;;;;;;;40.75;4.40;;;7.70;99.90;;;;;;5036175;28;20053;-60
2024/01/25 11:14:19;;;;;;;41.38;5.78;;;7.70;99.90;;;;;;5054516;28;20056;-60
2024/01/25 11:16:47;;;;;;;37.15;5.53;;;7.70;99.90;;;;;;5039725;28;20052;-60
2024/01/25 11:19:22;;;;;;;49.08;6.85;;;7.70;99.90;;;;;;5037244;28;21307;-60
2024/01/25 11:21:49;;;;;;;47.65;5.95;;;7.60;99.90;;;;;;5034380;28;20424;-60
2024/01/25 11:24:26;;;;;;;42.45;6.10;;;7.60;99.90;;;;;;5037543;28;20052;-60
2024/01/25 11:26:54;;;;;;;41.30;5.80;;;7.60;99.90;;;;;;5019952;28;20060;-60
2024/01/25 11:29:22;;;;;;;41.42;6.22;;;7.60;99.90;;;;;;5035379;28;20165;-60
2024/01/25 11:31:49;;;;;;;47.72;6.45;;;7.70;99.90;;;;;;5035946;28;20105;-60
2024/01/25 11:34:17;;;;;;;37.15;5.57;;;7.70;99.90;;;;;;5036547;28;20564;-60
2024/01/25 11:36:44;;;;;;;53.75;7.03;;;7.80;99.90;;;;;;5038810;28;20052;-60
2024/01/25 11:39:11;;;;;;;59.55;8.68;;;7.80;99.90;;;;;;5035584;28;20444;-60
2024/01/25 11:41:38;;;;;;;57.30;7.63;;;7.90;99.90;;;;;;5036576;28;20098;-60
2024/01/25 11:44:04;;;;;;;62.50;8.93;;;8.10;99.90;;;;;;5033320;28;20744;-60
2024/01/25 11:46:33;;;;;;;57.33;8.15;;;8.20;99.90;;;;;;5020946;28;20079;-60
2024/01/25 11:48:59;;;;;;;52.97;7.55;;;8.30;99.90;;;;;;5037769;28;20419;-60
2024/01/25 11:51:25;;;;;;;53.83;8.75;;;8.30;99.90;;;;;;5035865;28;20040;-60
2024/01/25 11:53:52;;;;;;;53.47;7.88;;;8.30;99.90;;;;;;5040109;28;20045;-60
2024/01/25 11:56:24;;;;;;;58.38;8.00;;;8.30;99.90;;;;;;5035230;28;20033;-60
2024/01/25 11:58:51;;;;;;;60.83;7.45;;;8.30;99.90;;;;;;5034869;28;20055;-60
2024/01/25 12:01:20;;;;;;;62.30;6.68;;;8.30;99.90;;;;;;5037288;28;20049;-60
2024/01/25 12:03:45;;;;;;;52.75;7.30;;;8.30;99.90;;;;;;5030920;28;20048;-60
2024/01/25 12:06:13;;;;;;;48.13;7.82;;;8.20;99.90;;;;;;5037678;28;20399;-60
2024/01/25 12:08:39;;;;;;;61.17;8.25;;;8.20;99.90;;;;;;5033754;28;20563;-60
2024/01/25 12:11:05;;;;;;;53.38;7.65;;;8.20;99.90;;;;;;5038178;28;20036;-60
2024/01/25 12:13:35;;;;;;;42.13;6.38;;;8.10;99.90;;;;;;5036797;28;20060;-60
2024/01/25 12:16:05;;;;;;;54.10;7.32;;;8.10;99.90;;;;;;5038686;28;20474;-60
2024/01/25 12:18:32;;;;;;;53.22;7.90;;;8.00;99.90;;;;;;5031462;28;20413;-60
2024/01/25 12:21:02;;;;;;;41.13;6.93;;;7.90;99.90;;;;;;5033984;28;20564;-60
2024/01/25 12:23:36;;;;;;;48.40;6.70;;;7.80;99.90;;;;;;5037151;28;20037;-60
2024/01/25 12:26:07;;;;;;;49.92;6.95;;;7.80;99.90;;;;;;5034378;28;20040;-60
2024/01/25 12:28:34;;;;;;;49.72;8.00;;;7.80;99.90;;;;;;5038491;28;20052;-60
2024/01/25 12:31:00;;;;;;;51.53;7.22;;;7.80;99.90;;;;;;5052549;28;20048;-60
2024/01/25 12:33:27;;;;;;;46.35;6.40;;;7.70;99.90;;;;;;5041360;28;20123;-60
2024/01/25 12:35:56;;;;;;;49.65;7.70;;;7.70;99.90;;;;;;5043238;28;20041;-60
2024/01/25 12:38:25;;;;;;;47.75;6.85;;;7.80;99.90;;;;;;5039999;28;20132;-61
2024/01/25 12:40:52;;;;;;;50.70;9.05;;;7.80;99.90;;;;;;5042234;28;20504;-60
2024/01/25 12:43:18;;;;;;;47.35;6.60;;;7.80;99.90;;;;;;5037028;28;20566;-60
2024/01/25 12:45:44;;;;;;;58.35;7.10;;;7.80;99.90;;;;;;5042143;28;20132;-60